Time;durP1;ratioP1;P1;durP2;ratioP2;P2;SDS_P1;SDS_P2;PMS_P1;PMS_P2;Temp;Humidity;BMP_temperature;BMP_pressure;BME280_temperature;BME280_humidity;BME280_pressure;Samples;Min_cycle;Max_cycle;Signal;HPM_P1;HPM_P2
2021/05/07 00:02:08;;;;;;;20.65;14.70;;;5.90;90.50;;;;;;4978495;28;20033;-79
2021/05/07 00:04:34;;;;;;;24.63;15.70;;;5.90;90.50;;;;;;4977223;28;20591;-80
2021/05/07 00:07:00;;;;;;;21.98;13.85;;;5.90;90.50;;;;;;4976943;28;20030;-78
2021/05/07 00:09:27;;;;;;;21.35;14.65;;;5.90;90.50;;;;;;4976808;28;20105;-80
2021/05/07 00:11:53;;;;;;;24.85;13.93;;;5.80;90.50;;;;;;4977327;28;20487;-80
2021/05/07 00:14:18;;;;;;;21.98;15.00;;;5.80;90.50;;;;;;4977123;28;20469;-79
2021/05/07 00:16:44;;;;;;;21.48;15.02;;;5.80;90.80;;;;;;4977578;28;20085;-79
2021/05/07 00:19:10;;;;;;;19.52;13.10;;;5.80;90.60;;;;;;4981406;28;20046;-80
2021/05/07 00:21:38;;;;;;;20.88;14.63;;;5.80;90.50;;;;;;4977581;28;20129;-79
2021/05/07 00:24:04;;;;;;;21.23;14.32;;;5.70;90.50;;;;;;4977691;28;20062;-78
2021/05/07 00:26:29;;;;;;;22.23;14.60;;;5.70;90.60;;;;;;4976857;28;20031;-79
2021/05/07 00:28:55;;;;;;;22.38;13.70;;;5.70;90.70;;;;;;4976297;28;20034;-78
2021/05/07 00:31:21;;;;;;;21.70;14.27;;;5.70;90.70;;;;;;4976140;28;20611;-78
2021/05/07 00:33:46;;;;;;;20.08;12.60;;;5.70;90.80;;;;;;4976407;28;20026;-78
2021/05/07 00:36:12;;;;;;;20.00;13.82;;;5.60;90.90;;;;;;4978059;28;20072;-79
2021/05/07 00:38:38;;;;;;;19.52;12.32;;;5.60;90.70;;;;;;4981061;28;20038;-78
2021/05/07 00:41:03;;;;;;;25.00;13.73;;;5.50;90.70;;;;;;4997652;28;20010;-78
2021/05/07 00:43:29;;;;;;;20.50;13.75;;;5.50;90.60;;;;;;4994070;28;20049;-77
2021/05/07 00:45:55;;;;;;;23.05;13.90;;;5.60;90.70;;;;;;4998780;28;20034;-79
2021/05/07 00:48:24;;;;;;;26.45;14.95;;;5.50;90.80;;;;;;4992053;28;20023;-81
2021/05/07 00:50:50;;;;;;;24.98;15.50;;;5.40;90.70;;;;;;4977761;28;20022;-78
2021/05/07 00:53:17;;;;;;;19.75;13.48;;;5.50;90.80;;;;;;4977286;28;20078;-79
2021/05/07 00:55:42;;;;;;;24.63;15.18;;;5.40;90.80;;;;;;4985652;28;20054;-79
2021/05/07 00:58:09;;;;;;;20.88;14.00;;;5.40;90.90;;;;;;4978499;28;20045;-79
2021/05/07 01:00:35;;;;;;;23.20;14.48;;;5.30;90.80;;;;;;4987935;28;20038;-78
2021/05/07 01:03:02;;;;;;;23.17;14.65;;;5.30;90.60;;;;;;4979811;28;20189;-79
2021/05/07 01:05:28;;;;;;;23.98;15.30;;;5.30;90.70;;;;;;4974645;28;20046;-79
2021/05/07 01:07:54;;;;;;;27.50;15.63;;;5.20;90.70;;;;;;4975851;28;20046;-79
2021/05/07 01:10:21;;;;;;;23.23;15.40;;;5.20;90.60;;;;;;4977180;28;20030;-79
2021/05/07 01:12:47;;;;;;;25.77;14.85;;;5.10;90.60;;;;;;4975869;28;20105;-78
2021/05/07 01:15:16;;;;;;;22.30;14.93;;;5.10;90.70;;;;;;4975919;28;20030;-79
2021/05/07 01:17:44;;;;;;;28.48;15.95;;;5.10;90.60;;;;;;4975183;28;20050;-78
2021/05/07 01:20:13;;;;;;;24.58;15.27;;;5.00;90.70;;;;;;4976073;28;20029;-78
2021/05/07 01:22:40;;;;;;;22.70;15.60;;;5.00;90.70;;;;;;4975803;28;20081;-79
2021/05/07 01:25:08;;;;;;;21.08;14.93;;;5.00;90.80;;;;;;4975452;28;20385;-78
2021/05/07 01:27:37;;;;;;;23.88;15.05;;;4.90;90.70;;;;;;4975860;28;20031;-79
2021/05/07 01:30:16;;;;;;;26.02;16.95;;;4.90;90.90;;;;;;4976963;28;20018;-79
2021/05/07 01:32:42;;;;;;;25.42;16.95;;;4.90;91.00;;;;;;4981002;28;20046;-78
2021/05/07 01:35:15;;;;;;;29.65;16.30;;;4.80;90.90;;;;;;4975157;28;20406;-77
2021/05/07 01:37:42;;;;;;;21.20;15.05;;;4.80;91.00;;;;;;4975105;28;20019;-78
2021/05/07 01:40:28;;;;;;;23.40;16.80;;;4.80;90.90;;;;;;4975470;28;20069;-78
2021/05/07 01:42:55;;;;;;;27.48;16.75;;;4.80;90.90;;;;;;4975146;28;20022;-77
2021/05/07 01:45:24;;;;;;;23.65;15.85;;;4.80;91.00;;;;;;4975490;28;20385;-79
2021/05/07 01:47:50;;;;;;;27.58;18.05;;;4.70;90.90;;;;;;4975704;28;20022;-77
2021/05/07 01:50:19;;;;;;;20.08;15.07;;;4.70;91.00;;;;;;4975243;28;20019;-78
2021/05/07 01:52:45;;;;;;;28.98;17.02;;;4.70;90.90;;;;;;4974717;28;20038;-78
2021/05/07 01:55:13;;;;;;;25.73;16.52;;;4.70;91.00;;;;;;4974532;28;20385;-78
2021/05/07 01:57:40;;;;;;;29.42;16.83;;;4.60;91.00;;;;;;4974219;28;20061;-78
2021/05/07 02:00:15;;;;;;;24.48;16.70;;;4.60;90.90;;;;;;4976133;28;20027;-78
2021/05/07 02:02:41;;;;;;;31.25;18.05;;;4.60;91.00;;;;;;4975560;28;20029;-78
2021/05/07 02:05:08;;;;;;;26.70;16.70;;;4.60;91.00;;;;;;4974597;28;20342;-78
2021/05/07 02:07:34;;;;;;;23.80;16.35;;;4.60;90.90;;;;;;4975826;28;20093;-78
2021/05/07 02:10:00;;;;;;;22.67;15.07;;;4.60;91.00;;;;;;4976781;28;20465;-77
2021/05/07 02:12:26;;;;;;;23.75;15.90;;;4.60;90.80;;;;;;4976535;28;20023;-78
2021/05/07 02:14:52;;;;;;;24.67;16.50;;;4.60;90.80;;;;;;4975863;28;20027;-78
2021/05/07 02:17:18;;;;;;;29.52;17.83;;;4.50;90.80;;;;;;4974368;28;20019;-78
2021/05/07 02:19:44;;;;;;;28.98;17.80;;;4.50;90.90;;;;;;4974893;28;20122;-77
2021/05/07 02:22:10;;;;;;;24.63;16.83;;;4.50;91.00;;;;;;4975317;28;20022;-77
2021/05/07 02:24:35;;;;;;;23.45;15.35;;;4.50;91.10;;;;;;4975572;28;20030;-79
2021/05/07 02:27:02;;;;;;;23.60;16.52;;;4.50;91.10;;;;;;4974590;28;20041;-78
2021/05/07 02:29:28;;;;;;;25.02;16.65;;;4.50;90.90;;;;;;4974881;28;20034;-79
2021/05/07 02:31:54;;;;;;;30.00;17.38;;;4.50;90.70;;;;;;4974127;28;20018;-77
2021/05/07 02:34:19;;;;;;;22.52;16.35;;;4.50;90.70;;;;;;4975581;28;20081;-78
2021/05/07 02:36:45;;;;;;;26.17;17.45;;;4.40;90.80;;;;;;4987444;28;20011;-77
2021/05/07 02:39:11;;;;;;;26.33;17.50;;;4.50;91.00;;;;;;4994044;28;20062;-77
2021/05/07 02:41:37;;;;;;;25.58;18.13;;;4.50;91.00;;;;;;4995114;28;20022;-77
2021/05/07 02:44:06;;;;;;;25.60;17.13;;;4.50;91.10;;;;;;4989871;28;20031;-76
2021/05/07 02:46:36;;;;;;;26.10;17.30;;;4.50;91.20;;;;;;4985045;28;20039;-78
2021/05/07 02:49:05;;;;;;;;;;;4.50;91.20;;;;;;4978342;28;20023;-78
2021/05/07 02:51:32;;;;;;;27.80;17.50;;;4.50;91.30;;;;;;4974031;28;19906;-78
2021/05/07 02:53:58;;;;;;;28.85;17.55;;;4.60;91.40;;;;;;4975395;28;20543;-77
2021/05/07 02:56:24;;;;;;;24.25;16.58;;;4.60;91.50;;;;;;4978274;28;20057;-77
2021/05/07 02:58:50;;;;;;;31.05;18.90;;;4.60;91.50;;;;;;4981779;28;20074;-77
2021/05/07 03:01:16;;;;;;;59.60;25.65;;;4.60;91.50;;;;;;4974840;28;20105;-78
2021/05/07 03:03:42;;;;;;;39.50;19.17;;;4.70;91.50;;;;;;4975667;28;20031;-77
2021/05/07 03:06:07;;;;;;;33.17;19.67;;;4.70;91.50;;;;;;4975340;28;20026;-77
2021/05/07 03:08:34;;;;;;;29.52;18.30;;;4.70;91.60;;;;;;4975849;28;20444;-77
2021/05/07 03:10:59;;;;;;;23.30;17.23;;;4.80;91.60;;;;;;4974410;28;20392;-78
2021/05/07 03:13:25;;;;;;;27.90;18.48;;;4.80;91.60;;;;;;4973373;28;20018;-77
2021/05/07 03:15:50;;;;;;;27.20;18.88;;;4.90;91.60;;;;;;4973234;28;20026;-77
2021/05/07 03:18:20;;;;;;;26.30;17.52;;;4.90;91.60;;;;;;4973671;28;20381;-76
2021/05/07 03:20:47;;;;;;;35.53;18.20;;;4.90;91.60;;;;;;4973150;28;20018;-79
2021/05/07 03:23:13;;;;;;;29.73;19.83;;;5.00;91.60;;;;;;4974910;28;20031;-77
2021/05/07 03:25:39;;;;;;;27.38;19.00;;;5.00;91.60;;;;;;4978990;28;20085;-76
2021/05/07 03:28:06;;;;;;;25.85;17.95;;;5.10;91.50;;;;;;4973304;28;20025;-78
2021/05/07 03:30:33;;;;;;;28.20;19.95;;;5.00;91.50;;;;;;4972957;28;20396;-76
2021/05/07 03:33:00;;;;;;;31.08;18.67;;;5.10;91.50;;;;;;4973161;28;20169;-77
2021/05/07 03:35:25;;;;;;;27.50;18.80;;;5.10;91.40;;;;;;4976005;28;20058;-77
2021/05/07 03:37:51;;;;;;;30.67;18.35;;;5.10;91.50;;;;;;4979121;28;20459;-77
2021/05/07 03:40:17;;;;;;;28.52;19.08;;;5.10;91.50;;;;;;4976066;28;20066;-77
2021/05/07 03:42:44;;;;;;;29.17;19.17;;;5.20;91.50;;;;;;4973078;28;20023;-78
2021/05/07 03:45:19;;;;;;;25.73;19.00;;;5.20;91.60;;;;;;4973163;28;20035;-77
2021/05/07 03:47:46;;;;;;;29.50;20.08;;;5.20;91.50;;;;;;4974981;28;20089;-77
2021/05/07 03:50:12;;;;;;;32.20;19.70;;;5.20;91.50;;;;;;4973873;28;20031;-77
2021/05/07 03:52:40;;;;;;;26.42;18.83;;;5.30;91.40;;;;;;4974258;28;20041;-78
2021/05/07 03:55:08;;;;;;;27.08;17.95;;;5.30;91.40;;;;;;4974047;28;20023;-78
2021/05/07 03:57:33;;;;;;;28.58;18.80;;;5.30;91.30;;;;;;4977287;28;20026;-78
2021/05/07 03:59:59;;;;;;;28.02;20.17;;;5.40;91.40;;;;;;4975991;28;20031;-78
2021/05/07 04:02:25;;;;;;;30.45;21.42;;;5.40;91.60;;;;;;4977221;28;20027;-76
2021/05/07 04:04:51;;;;;;;28.70;20.45;;;5.50;91.70;;;;;;4976977;28;20033;-77
2021/05/07 04:07:17;;;;;;;26.90;19.55;;;5.40;91.60;;;;;;4976510;28;20500;-79
2021/05/07 04:15:01;;;;;;;17.40;13.27;;;5.50;91.30;;;;;;4977247;28;20031;-77
2021/05/07 04:17:26;;;;;;;17.15;11.27;;;5.60;91.20;;;;;;4977159;28;20066;-80
2021/05/07 04:19:52;;;;;;;19.75;12.02;;;5.50;90.90;;;;;;4978539;28;20030;-78
2021/05/07 04:22:18;;;;;;;17.02;10.40;;;5.40;90.50;;;;;;4976348;28;20448;-80
2021/05/07 04:24:43;;;;;;;15.52;9.07;;;5.40;90.40;;;;;;4974065;28;20035;-78
2021/05/07 04:27:13;;;;;;;12.10;7.97;;;5.30;90.10;;;;;;4973766;28;20046;-79
2021/05/07 04:29:40;;;;;;;11.73;6.90;;;5.30;90.30;;;;;;4974094;28;20059;-79
2021/05/07 04:32:06;;;;;;;12.35;6.55;;;5.30;89.60;;;;;;4979726;28;20023;-79
2021/05/07 04:34:31;;;;;;;10.82;6.22;;;5.10;89.40;;;;;;4994329;28;20041;-78
2021/05/07 04:36:58;;;;;;;11.25;6.22;;;5.20;89.80;;;;;;4994229;28;20022;-79
2021/05/07 04:39:23;;;;;;;10.05;5.63;;;5.20;89.90;;;;;;4992079;28;20033;-79
2021/05/07 04:41:49;;;;;;;11.70;5.97;;;5.10;89.30;;;;;;4979509;28;20476;-77
2021/05/07 04:44:15;;;;;;;11.38;6.35;;;5.10;89.60;;;;;;4958868;28;20027;-79
2021/05/07 04:46:40;;;;;;;12.68;5.32;;;5.10;89.40;;;;;;4956875;28;20035;-79
2021/05/07 04:49:06;;;;;;;9.88;5.43;;;5.10;88.30;;;;;;4957093;28;20015;-78
2021/05/07 04:51:31;;;;;;;12.75;5.00;;;5.20;88.50;;;;;;4963832;28;20038;-77
2021/05/07 04:53:59;;;;;;;9.88;5.45;;;5.20;88.60;;;;;;4968311;28;20082;-77
2021/05/07 04:56:25;;;;;;;13.10;5.95;;;5.20;89.10;;;;;;4968686;28;20023;-79
2021/05/07 04:58:51;;;;;;;12.05;5.43;;;5.10;89.60;;;;;;4962565;28;20101;-79
2021/05/07 05:01:16;;;;;;;9.80;5.90;;;5.10;89.10;;;;;;4975303;28;20109;-79
2021/05/07 05:03:42;;;;;;;9.27;5.43;;;5.10;89.90;;;;;;4975565;28;20073;-78
2021/05/07 05:06:08;;;;;;;9.00;4.85;;;5.10;90.00;;;;;;4975441;28;20146;-79
2021/05/07 05:08:33;;;;;;;8.18;4.72;;;5.10;90.00;;;;;;4975432;28;20456;-78
2021/05/07 05:11:00;;;;;;;8.30;4.47;;;5.00;90.00;;;;;;4975245;28;20019;-78
2021/05/07 05:13:26;;;;;;;11.23;5.43;;;5.00;89.80;;;;;;4977122;28;20523;-78
2021/05/07 05:15:53;;;;;;;10.57;4.90;;;5.00;89.90;;;;;;4976981;28;20129;-78
2021/05/07 05:18:36;;;;;;;7.40;4.38;;;5.10;90.10;;;;;;4976159;28;20073;-78
2021/05/07 05:21:07;;;;;;;7.53;4.43;;;5.10;90.00;;;;;;4975208;28;20433;-77
2021/05/07 05:23:33;;;;;;;11.98;5.03;;;5.10;90.00;;;;;;4976834;28;20027;-77
2021/05/07 05:25:59;;;;;;;12.02;5.18;;;5.10;90.10;;;;;;4976409;28;20515;-78
2021/05/07 05:28:28;;;;;;;7.32;4.88;;;5.30;90.30;;;;;;4976035;28;20042;-78
2021/05/07 05:30:54;;;;;;;12.00;4.88;;;5.20;90.50;;;;;;4974936;28;20081;-78
2021/05/07 05:33:20;;;;;;;9.88;6.43;;;5.20;90.90;;;;;;4975159;28;20030;-78
2021/05/07 05:35:47;;;;;;;9.60;5.15;;;5.20;90.70;;;;;;4975120;28;20027;-78
2021/05/07 05:38:16;;;;;;;8.73;5.60;;;5.20;90.40;;;;;;4979328;28;20041;-78
2021/05/07 05:40:41;;;;;;;8.68;5.30;;;5.10;90.50;;;;;;4980194;28;20027;-78
2021/05/07 05:43:08;;;;;;;10.25;5.18;;;5.10;90.40;;;;;;4980333;28;20472;-80
2021/05/07 05:45:35;;;;;;;9.32;4.50;;;5.20;90.40;;;;;;4981443;28;20031;-77
2021/05/07 05:48:05;;;;;;;9.32;4.63;;;5.30;90.40;;;;;;4978196;28;20031;-77
2021/05/07 05:50:31;;;;;;;8.57;4.15;;;5.20;90.60;;;;;;4977297;28;20177;-77
2021/05/07 05:52:57;;;;;;;7.30;4.28;;;5.30;90.80;;;;;;4978323;28;20031;-77
2021/05/07 05:55:23;;;;;;;9.55;4.80;;;5.40;90.40;;;;;;4976474;28;20027;-78
2021/05/07 05:57:49;;;;;;;7.85;4.28;;;5.50;90.40;;;;;;4975280;28;20443;-78
2021/05/07 06:00:16;;;;;;;7.18;4.70;;;5.50;90.20;;;;;;4974852;28;20053;-76
2021/05/07 06:02:41;;;;;;;6.65;4.25;;;5.60;89.90;;;;;;4976123;28;20023;-78
2021/05/07 06:05:09;;;;;;;8.15;4.10;;;5.80;90.20;;;;;;4975256;28;20376;-78
2021/05/07 06:07:35;;;;;;;7.53;4.63;;;5.90;89.90;;;;;;4976068;28;20063;-77
2021/05/07 06:10:00;;;;;;;7.55;4.20;;;5.90;88.80;;;;;;4975929;28;20027;-78
2021/05/07 06:12:26;;;;;;;6.22;4.07;;;6.00;88.60;;;;;;4975318;28;20106;-79
2021/05/07 06:14:55;;;;;;;8.43;4.05;;;6.10;89.10;;;;;;4975572;28;20471;-78
2021/05/07 06:17:21;;;;;;;7.78;4.40;;;6.20;89.00;;;;;;4974798;28;20453;-78
2021/05/07 06:19:46;;;;;;;8.90;4.05;;;6.30;89.00;;;;;;4976021;28;20492;-77
2021/05/07 06:22:20;;;;;;;10.52;4.72;;;6.30;88.60;;;;;;4975084;28;20280;-78
2021/05/07 06:24:45;;;;;;;6.32;3.97;;;6.40;89.00;;;;;;4975930;28;20050;-77
2021/05/07 06:27:14;;;;;;;6.85;4.03;;;6.60;89.40;;;;;;4980047;28;20042;-77
2021/05/07 06:29:39;;;;;;;9.00;4.53;;;6.70;88.40;;;;;;4993108;28;20221;-77
2021/05/07 06:32:05;;;;;;;6.72;3.75;;;6.70;88.20;;;;;;4986805;28;20023;-76
2021/05/07 06:34:34;;;;;;;8.80;3.88;;;6.70;86.60;;;;;;4997005;28;20030;-77
2021/05/07 06:37:00;;;;;;;5.95;3.70;;;6.70;88.30;;;;;;4988691;28;20030;-77
2021/05/07 06:39:29;;;;;;;5.43;3.03;;;6.80;88.20;;;;;;4979342;28;20034;-78
2021/05/07 06:41:59;;;;;;;6.60;3.45;;;6.90;86.80;;;;;;4975134;28;20027;-77
2021/05/07 06:44:30;;;;;;;8.00;2.43;;;6.90;87.50;;;;;;4974612;28;20096;-77
2021/05/07 06:46:56;;;;;;;5.20;2.63;;;7.10;87.60;;;;;;4975227;28;20031;-78
2021/05/07 06:49:22;;;;;;;5.80;2.65;;;7.10;85.80;;;;;;4975848;28;20029;-77
2021/05/07 06:51:49;;;;;;;4.75;2.88;;;7.20;85.80;;;;;;4977556;28;20078;-77
2021/05/07 06:54:15;;;;;;;4.35;2.17;;;7.40;86.90;;;;;;4973519;28;20034;-78
2021/05/07 06:56:41;;;;;;;4.47;2.30;;;7.50;84.90;;;;;;4974699;28;20150;-78
2021/05/07 06:59:13;;;;;;;5.90;2.80;;;7.50;83.80;;;;;;4974541;28;20055;-76
2021/05/07 07:01:38;;;;;;;5.47;2.83;;;7.50;83.70;;;;;;4974765;28;20019;-76
2021/05/07 07:04:04;;;;;;;5.03;3.15;;;7.70;85.00;;;;;;4974031;28;20023;-78
2021/05/07 07:06:39;;;;;;;6.57;2.95;;;7.80;83.70;;;;;;4978613;28;20070;-76
2021/05/07 07:09:05;;;;;;;4.63;3.08;;;7.90;83.40;;;;;;4976405;28;20078;-78
2021/05/07 07:11:33;;;;;;;5.10;3.13;;;7.90;81.60;;;;;;4974927;28;20034;-77
2021/05/07 07:13:59;;;;;;;5.20;2.45;;;8.00;81.70;;;;;;4974907;28;20023;-78
2021/05/07 07:16:28;;;;;;;6.45;3.25;;;8.10;82.50;;;;;;4974966;28;20034;-79
2021/05/07 07:19:00;;;;;;;4.63;2.80;;;8.30;80.70;;;;;;4979347;28;20049;-77
2021/05/07 07:21:26;;;;;;;6.15;3.83;;;8.30;78.90;;;;;;4974023;28;20106;-78
2021/05/07 07:23:51;;;;;;;7.07;3.65;;;8.30;80.60;;;;;;4976507;28;20031;-77
2021/05/07 07:26:20;;;;;;;9.02;3.67;;;8.30;80.90;;;;;;4974397;28;20065;-77
2021/05/07 07:28:48;;;;;;;5.30;3.80;;;8.50;81.10;;;;;;4975238;28;20023;-78
2021/05/07 07:31:14;;;;;;;4.55;2.28;;;8.80;80.20;;;;;;4975339;28;20033;-80
2021/05/07 07:33:43;;;;;;;7.13;2.97;;;9.10;79.70;;;;;;4974902;28;20027;-79
2021/05/07 07:36:09;;;;;;;6.03;3.05;;;9.70;79.90;;;;;;4973925;28;20026;-79
2021/05/07 07:38:34;;;;;;;4.47;2.75;;;10.10;77.40;;;;;;4975749;28;20023;-80
2021/05/07 07:41:03;;;;;;;5.40;2.78;;;10.20;75.90;;;;;;4974810;28;20026;-78
2021/05/07 07:43:28;;;;;;;6.03;2.40;;;10.20;75.40;;;;;;4981507;28;20065;-77
2021/05/07 07:45:54;;;;;;;6.00;2.25;;;10.20;74.70;;;;;;4976986;28;20039;-77
2021/05/07 07:48:20;;;;;;;7.05;3.15;;;10.30;74.00;;;;;;4977513;28;20019;-78
2021/05/07 07:50:46;;;;;;;8.40;3.55;;;10.20;74.70;;;;;;4975460;28;20110;-77
2021/05/07 07:53:11;;;;;;;7.97;3.17;;;10.30;73.90;;;;;;4975595;28;20031;-78
2021/05/07 07:55:37;;;;;;;7.32;3.95;;;10.60;73.20;;;;;;4975060;28;20038;-79
2021/05/07 07:58:04;;;;;;;5.97;2.90;;;10.90;73.70;;;;;;4973970;28;20043;-77
2021/05/07 08:00:29;;;;;;;6.20;3.92;;;11.00;71.00;;;;;;4973615;28;20023;-79
2021/05/07 08:02:55;;;;;;;5.13;3.38;;;11.00;71.60;;;;;;4973199;28;20027;-77
2021/05/07 08:05:21;;;;;;;8.88;3.70;;;11.10;71.00;;;;;;4974085;28;20465;-79
2021/05/07 08:07:47;;;;;;;6.97;2.97;;;11.30;71.10;;;;;;4973284;28;20122;-78
2021/05/07 08:10:15;;;;;;;4.78;2.75;;;11.50;70.50;;;;;;4975246;28;20432;-78
2021/05/07 08:12:43;;;;;;;6.40;2.80;;;11.70;69.50;;;;;;4973708;28;20081;-78
2021/05/07 08:15:09;;;;;;;9.82;2.65;;;11.90;69.40;;;;;;4973787;28;20054;-77
2021/05/07 08:17:35;;;;;;;7.05;2.90;;;12.00;68.60;;;;;;4977262;28;20078;-78
2021/05/07 08:20:01;;;;;;;7.75;3.50;;;12.20;68.50;;;;;;4980674;28;20023;-79
2021/05/07 08:22:27;;;;;;;6.57;3.50;;;12.30;67.20;;;;;;4980911;28;20329;-78
2021/05/07 08:24:53;;;;;;;6.20;2.35;;;12.20;67.20;;;;;;4989688;28;20108;-79
2021/05/07 08:27:21;;;;;;;9.32;3.65;;;12.30;66.70;;;;;;4991836;28;20053;-79
2021/05/07 08:29:48;;;;;;;4.30;2.38;;;12.50;66.70;;;;;;4996030;28;20027;-78
2021/05/07 08:32:13;;;;;;;7.88;2.80;;;12.50;64.40;;;;;;4996294;28;20031;-78
2021/05/07 08:34:42;;;;;;;4.43;2.05;;;12.30;65.10;;;;;;4986078;28;20082;-79
2021/05/07 08:37:08;;;;;;;5.10;2.60;;;12.30;65.80;;;;;;4976784;28;20026;-78
2021/05/07 08:39:35;;;;;;;5.30;2.25;;;12.50;66.20;;;;;;4977928;28;20386;-78
2021/05/07 08:42:01;;;;;;;5.25;2.38;;;12.50;64.60;;;;;;4972362;28;20023;-77
2021/05/07 08:44:27;;;;;;;7.30;2.92;;;12.30;64.30;;;;;;4958865;28;20094;-79
2021/05/07 08:46:55;;;;;;;6.72;3.28;;;12.00;63.70;;;;;;4975065;28;20488;-79
2021/05/07 08:49:23;;;;;;;6.35;2.55;;;11.80;65.50;;;;;;4974795;28;20023;-81
2021/05/07 08:51:48;;;;;;;5.15;2.67;;;11.60;64.40;;;;;;4957725;28;20039;-79
2021/05/07 08:54:14;;;;;;;5.38;2.70;;;11.70;65.10;;;;;;4957268;28;20074;-79
2021/05/07 08:56:40;;;;;;;4.57;2.90;;;11.80;64.10;;;;;;4964633;28;20036;-79
2021/05/07 08:59:06;;;;;;;3.85;2.10;;;11.70;65.00;;;;;;4968880;28;20519;-79
2021/05/07 09:01:44;;;;;;;4.57;1.83;;;11.60;62.20;;;;;;4976330;28;20023;-77
2021/05/07 09:04:15;;;;;;;4.68;3.03;;;11.90;62.60;;;;;;4975898;28;20539;-79
2021/05/07 09:06:53;;;;;;;7.30;1.98;;;12.10;61.60;;;;;;4975965;28;20057;-77
2021/05/07 09:09:30;;;;;;;4.88;2.33;;;12.00;61.40;;;;;;4977700;28;20027;-78
2021/05/07 09:11:58;;;;;;;4.75;2.20;;;12.20;61.10;;;;;;4977290;28;20027;-78
2021/05/07 09:14:25;;;;;;;4.20;2.33;;;12.40;58.60;;;;;;4975517;28;20027;-78
2021/05/07 09:17:00;;;;;;;5.50;2.50;;;12.20;59.10;;;;;;4976640;28;20037;-80
2021/05/07 09:19:37;;;;;;;5.32;2.50;;;12.10;59.90;;;;;;4976770;28;20034;-80
2021/05/07 09:22:05;;;;;;;3.58;2.10;;;12.10;59.00;;;;;;4977425;28;20030;-77
2021/05/07 09:24:32;;;;;;;7.55;3.15;;;12.30;58.40;;;;;;4978742;28;20019;-77
2021/05/07 09:26:58;;;;;;;5.00;2.92;;;12.20;54.10;;;;;;4976931;28;20042;-80
2021/05/07 09:29:27;;;;;;;3.65;2.10;;;12.10;57.60;;;;;;4976197;28;20023;-80
2021/05/07 09:31:53;;;;;;;6.72;2.30;;;12.20;56.20;;;;;;4977409;28;20547;-78
2021/05/07 09:34:21;;;;;;;6.63;3.08;;;12.30;57.80;;;;;;4981245;28;20026;-78
2021/05/07 09:36:47;;;;;;;7.50;2.78;;;12.30;56.80;;;;;;4976844;28;20042;-79
2021/05/07 09:39:18;;;;;;;5.10;2.30;;;12.20;57.90;;;;;;4976225;28;20023;-78
2021/05/07 09:41:47;;;;;;;4.55;1.33;;;12.40;57.80;;;;;;4976469;28;20038;-79
2021/05/07 09:44:35;;;;;;;4.75;2.45;;;12.60;61.10;;;;;;4975706;28;20027;-80
2021/05/07 09:47:13;;;;;;;5.18;2.45;;;13.10;55.40;;;;;;4978668;28;20030;-80
2021/05/07 09:49:38;;;;;;;8.00;2.42;;;13.60;54.90;;;;;;4984623;28;20050;-79
2021/05/07 09:52:04;;;;;;;5.70;2.10;;;13.50;53.10;;;;;;4979750;28;20027;-79
2021/05/07 09:54:30;;;;;;;5.13;1.85;;;13.50;53.90;;;;;;4975819;28;20062;-80
2021/05/07 09:56:57;;;;;;;4.07;2.03;;;13.40;53.00;;;;;;4976309;28;20428;-78
2021/05/07 09:59:23;;;;;;;7.65;2.10;;;13.50;51.60;;;;;;4976440;28;20142;-79
2021/05/07 10:01:49;;;;;;;6.65;2.35;;;13.70;48.40;;;;;;4976815;28;20032;-79
2021/05/07 10:04:16;;;;;;;9.98;3.80;;;13.60;48.20;;;;;;4977084;28;20373;-81
2021/05/07 10:06:42;;;;;;;4.97;2.50;;;13.30;52.30;;;;;;4977011;28;20138;-81
2021/05/07 10:09:09;;;;;;;4.03;1.95;;;13.20;51.60;;;;;;4978277;28;20551;-79
2021/05/07 10:11:45;;;;;;;5.75;2.13;;;13.10;54.50;;;;;;4976796;28;20029;-78
2021/05/07 10:14:15;;;;;;;6.40;2.65;;;13.10;51.60;;;;;;4976667;28;20049;-78
2021/05/07 10:16:42;;;;;;;5.32;2.60;;;12.90;51.50;;;;;;4977956;28;20030;-80
2021/05/07 10:19:12;;;;;;;5.25;2.47;;;12.70;54.40;;;;;;4979318;28;20030;-78
2021/05/07 10:21:41;;;;;;;6.68;2.90;;;12.90;52.60;;;;;;4993507;28;20014;-80
2021/05/07 10:24:15;;;;;;;9.88;4.07;;;13.20;52.50;;;;;;4996202;28;20019;-77
2021/05/07 10:26:52;;;;;;;5.40;2.75;;;13.30;54.50;;;;;;4995298;28;20031;-79
2021/05/07 10:29:25;;;;;;;5.70;2.88;;;13.20;53.60;;;;;;4994204;28;20070;-79
2021/05/07 10:31:54;;;;;;;6.68;3.05;;;13.20;54.30;;;;;;5001144;28;20113;-78
2021/05/07 10:34:22;;;;;;;7.65;3.17;;;12.90;54.50;;;;;;4982784;28;20026;-81
2021/05/07 10:36:55;;;;;;;4.25;2.13;;;12.70;56.10;;;;;;4985312;28;20035;-78
2021/05/07 10:39:28;;;;;;;5.10;2.28;;;12.70;59.90;;;;;;4976275;28;20015;-83
2021/05/07 10:41:59;;;;;;;5.85;2.50;;;13.10;58.60;;;;;;4986884;28;20026;-80
2021/05/07 10:44:26;;;;;;;3.80;1.80;;;13.70;54.20;;;;;;4996676;28;20034;-81
2021/05/07 10:47:07;;;;;;;4.35;2.40;;;14.20;59.00;;;;;;4989099;28;20054;-78
2021/05/07 10:49:36;;;;;;;3.88;2.08;;;14.60;50.50;;;;;;4976953;28;20062;-81
2021/05/07 10:52:05;;;;;;;4.70;2.23;;;14.90;49.30;;;;;;4973981;28;20027;-79
2021/05/07 10:54:41;;;;;;;5.75;2.53;;;15.30;46.90;;;;;;4974197;28;20062;-79
2021/05/07 10:57:24;;;;;;;4.78;1.85;;;15.50;47.70;;;;;;4974591;28;20114;-81
2021/05/07 10:59:58;;;;;;;3.88;1.88;;;15.40;52.80;;;;;;4973978;28;20549;-81
2021/05/07 11:02:24;;;;;;;6.05;2.85;;;15.00;49.20;;;;;;4974621;28;20031;-79
2021/05/07 11:04:51;;;;;;;3.33;1.40;;;14.50;50.30;;;;;;4975398;28;20051;-79
2021/05/07 11:07:30;;;;;;;4.28;2.10;;;14.20;55.70;;;;;;4975350;28;20039;-81
2021/05/07 11:10:14;;;;;;;4.53;1.63;;;14.00;50.10;;;;;;4974265;28;20027;-80
2021/05/07 11:12:44;;;;;;;7.97;2.03;;;13.80;50.60;;;;;;4974644;28;20026;-80
2021/05/07 11:15:33;;;;;;;4.40;1.60;;;13.50;50.10;;;;;;4975299;28;20031;-80
2021/05/07 11:18:07;;;;;;;5.68;2.42;;;13.40;51.90;;;;;;4975799;28;20045;-79
2021/05/07 11:20:39;;;;;;;3.95;1.80;;;13.40;49.40;;;;;;4974534;28;20082;-80
2021/05/07 11:23:10;;;;;;;4.55;2.10;;;13.40;52.20;;;;;;4974470;28;20026;-80
2021/05/07 11:25:39;;;;;;;5.25;2.50;;;13.80;50.00;;;;;;4974970;28;20469;-80
2021/05/07 11:28:18;;;;;;;4.60;1.92;;;14.30;49.10;;;;;;4975604;28;20052;-82
2021/05/07 11:30:49;;;;;;;3.95;1.73;;;14.70;46.30;;;;;;4975765;28;20022;-81
2021/05/07 11:33:48;;;;;;;5.82;2.05;;;14.80;44.90;;;;;;4964121;28;20086;-80
2021/05/07 11:36:18;;;;;;;6.28;2.60;;;14.60;46.30;;;;;;4966472;28;20039;-80
2021/05/07 11:38:44;;;;;;;7.25;2.55;;;14.40;48.00;;;;;;4975662;28;20027;-80
2021/05/07 11:41:20;;;;;;;6.57;2.28;;;14.20;48.40;;;;;;4973437;28;20023;-81
2021/05/07 11:43:46;;;;;;;3.78;1.15;;;14.40;48.60;;;;;;4974509;28;20034;-80
2021/05/07 11:46:12;;;;;;;5.10;2.20;;;14.90;55.30;;;;;;4973945;28;20023;-82
2021/05/07 11:48:44;;;;;;;5.55;2.22;;;15.00;50.40;;;;;;4977940;28;20075;-80
2021/05/07 11:51:13;;;;;;;4.68;1.88;;;14.90;47.10;;;;;;4981295;28;20022;-80
2021/05/07 11:53:39;;;;;;;6.28;1.95;;;14.80;47.70;;;;;;4992324;28;20023;-81
2021/05/07 11:56:20;;;;;;;7.63;1.70;;;14.80;43.20;;;;;;4981600;28;20035;-80
2021/05/07 11:58:49;;;;;;;4.85;2.15;;;14.60;43.50;;;;;;4978017;28;20066;-80
2021/05/07 12:01:14;;;;;;;4.93;1.77;;;14.40;45.20;;;;;;4979486;28;20035;-81
2021/05/07 12:03:45;;;;;;;5.05;1.80;;;14.20;47.20;;;;;;4978161;28;20055;-81
2021/05/07 12:06:22;;;;;;;4.45;2.13;;;14.10;47.90;;;;;;4977823;28;20065;-84
2021/05/07 12:08:49;;;;;;;7.05;1.92;;;14.00;46.50;;;;;;4981222;28;20121;-84
2021/05/07 12:11:16;;;;;;;7.00;2.45;;;14.20;46.10;;;;;;4978571;28;20483;-83
2021/05/07 12:13:43;;;;;;;5.03;1.80;;;14.70;47.60;;;;;;4979925;28;20190;-84
2021/05/07 12:16:12;;;;;;;4.38;1.30;;;15.10;41.80;;;;;;4980615;28;20485;-81
2021/05/07 12:18:50;;;;;;;2.92;1.70;;;15.20;49.20;;;;;;4992477;28;20086;-82
2021/05/07 12:21:16;;;;;;;3.28;1.85;;;15.10;41.90;;;;;;4996942;28;20073;-81
2021/05/07 12:23:45;;;;;;;7.05;2.47;;;14.90;41.80;;;;;;4999854;28;20030;-84
2021/05/07 12:26:12;;;;;;;4.80;2.05;;;14.70;44.50;;;;;;4996360;28;20039;-86
2021/05/07 12:28:38;;;;;;;3.03;1.65;;;14.30;45.50;;;;;;4983603;28;20081;-86
2021/05/07 12:31:08;;;;;;;4.93;2.28;;;14.10;49.60;;;;;;4978978;28;20030;-81
2021/05/07 12:33:36;;;;;;;4.43;1.83;;;14.20;45.50;;;;;;4978547;28;20019;-81
2021/05/07 12:36:05;;;;;;;5.10;2.25;;;14.50;45.10;;;;;;4979986;28;20026;-83
2021/05/07 12:38:34;;;;;;;4.15;2.22;;;14.70;44.50;;;;;;4982966;28;20024;-82
2021/05/07 12:41:11;;;;;;;6.03;3.15;;;14.50;45.00;;;;;;4977600;28;20030;-83
2021/05/07 12:43:39;;;;;;;6.63;2.70;;;14.10;47.20;;;;;;4969486;28;20033;-82
2021/05/07 12:46:05;;;;;;;4.57;2.00;;;14.20;46.90;;;;;;4958191;28;20118;-84
2021/05/07 12:48:31;;;;;;;6.18;1.88;;;14.50;49.10;;;;;;4958464;28;20457;-84
2021/05/07 12:51:04;;;;;;;3.78;1.38;;;14.60;48.30;;;;;;4962125;28;20023;-82
2021/05/07 12:53:30;;;;;;;3.65;1.88;;;15.00;51.80;;;;;;4959188;28;20362;-83
2021/05/07 12:55:56;;;;;;;4.47;1.88;;;15.20;44.60;;;;;;4958775;28;20031;-83